createdAt,value
2018-08-18T00:04:13.398Z,54.17
2018-08-18T00:09:17.401Z,53.74
2018-08-18T00:14:21.174Z,50.63
2018-08-18T00:19:26.341Z,51.98
2018-08-18T00:24:30.049Z,53.71
2018-08-18T00:29:33.701Z,54.04
2018-08-18T00:34:41.817Z,54.17
2018-08-18T00:39:45.518Z,53.94
2018-08-18T00:44:49.190Z,51.03
2018-08-18T00:49:52.879Z,53.34
2018-08-18T00:54:56.531Z,52.88
2018-08-18T01:05:10.540Z,53.93
2018-08-18T01:10:14.306Z,54.27
2018-08-18T01:15:21.737Z,54.39
2018-08-18T01:20:25.586Z,53.99
2018-08-18T01:25:29.428Z,54.33
2018-08-18T01:30:33.094Z,53.91
2018-08-18T01:35:36.775Z,53.44
2018-08-18T01:40:40.496Z,53.82
2018-08-18T01:45:44.228Z,53.63
2018-08-18T01:50:47.866Z,52.98
2018-08-18T01:55:52.121Z,53.71
2018-08-18T02:00:55.836Z,53.60
2018-08-18T02:05:59.496Z,53.82
2018-08-18T02:11:03.192Z,52.98
2018-08-18T02:16:06.966Z,53.33
2018-08-18T02:21:20.890Z,51.38
2018-08-18T02:26:24.507Z,50.65
2018-08-18T02:31:28.237Z,50.27
2018-08-18T02:36:31.871Z,49.78
2018-08-18T02:41:35.653Z,50.86
2018-08-18T02:46:40.012Z,51.17
2018-08-18T02:51:43.842Z,51.95
2018-08-18T02:56:47.574Z,52.33
2018-08-18T03:01:51.196Z,52.65
2018-08-18T03:06:55.032Z,50.51
2018-08-18T03:11:58.675Z,52.12
2018-08-18T03:17:03.085Z,51.60
2018-08-18T03:22:06.878Z,50.75
2018-08-18T03:27:11.124Z,50.66
2018-08-18T03:32:15.080Z,50.28
2018-08-18T03:37:30.834Z,49.84
2018-08-18T03:42:40.037Z,49.92
2018-08-18T03:47:43.997Z,49.28
2018-08-18T03:52:49.953Z,50.78
2018-08-18T03:57:53.742Z,50.97
2018-08-18T04:02:57.416Z,50.82
2018-08-18T04:08:01.442Z,50.88
2018-08-18T04:13:06.099Z,50.60
2018-08-18T04:18:14.657Z,50.57
2018-08-18T04:23:18.817Z,50.80
2018-08-18T04:28:22.724Z,50.99
2018-08-18T04:33:26.393Z,51.14
2018-08-18T04:38:31.476Z,50.88
2018-08-18T04:43:35.221Z,50.78
2018-08-18T04:48:39.336Z,50.99
2018-08-18T04:53:43.390Z,51.21
2018-08-18T04:58:47.183Z,51.00
2018-08-18T05:04:00.705Z,50.53
2018-08-18T05:09:06.385Z,50.51
2018-08-18T05:14:11.006Z,49.96
2018-08-18T05:19:15.512Z,50.03
2018-08-18T05:24:26.634Z,50.66
2018-08-18T05:29:30.822Z,50.50
2018-08-18T05:34:34.755Z,50.17
2018-08-18T05:39:38.426Z,50.14
2018-08-18T05:44:42.860Z,50.45
2018-08-18T05:49:46.595Z,50.17
2018-08-18T05:54:50.577Z,50.43
2018-08-18T05:59:54.278Z,49.94
2018-08-18T06:04:57.940Z,50.23
2018-08-18T06:10:05.696Z,49.64
2018-08-18T06:15:09.422Z,49.40
2018-08-18T06:20:13.338Z,49.75
2018-08-18T06:25:18.047Z,49.37
2018-08-18T06:30:23.855Z,48.86
2018-08-18T06:35:29.358Z,50.14
2018-08-18T06:40:34.082Z,48.51
2018-08-18T06:45:37.794Z,48.15
2018-08-18T06:50:42.004Z,48.01
2018-08-18T06:55:45.927Z,49.01
2018-08-18T07:00:49.619Z,49.34
2018-08-18T07:05:53.312Z,49.12
2018-08-18T07:10:57.046Z,49.18
2018-08-18T07:16:00.759Z,49.63
2018-08-18T07:21:04.425Z,49.94
2018-08-18T07:26:08.483Z,49.62
2018-08-18T07:31:12.278Z,49.72
2018-08-18T07:36:15.978Z,48.91
2018-08-18T07:41:20.070Z,49.09
2018-08-18T07:46:23.677Z,48.90
2018-08-18T07:51:29.634Z,48.53
2018-08-18T07:56:33.290Z,48.31
2018-08-18T08:01:37.062Z,48.41
2018-08-18T08:06:40.819Z,48.07
2018-08-18T08:11:44.422Z,47.76
2018-08-18T08:16:48.264Z,47.88
2018-08-18T08:21:52.877Z,48.28
2018-08-18T08:26:56.646Z,47.67
2018-08-18T08:32:01.172Z,48.04
2018-08-18T08:37:06.122Z,47.53
2018-08-18T08:42:11.048Z,47.60
2018-08-18T08:47:16.569Z,47.50
2018-08-18T08:52:20.522Z,47.59
2018-08-18T08:57:24.180Z,47.47
2018-08-18T09:02:27.904Z,46.66
2018-08-18T09:07:31.687Z,46.37
2018-08-18T09:12:35.442Z,46.29
2018-08-18T09:17:39.133Z,45.77
2018-08-18T09:22:51.253Z,45.20
2018-08-18T09:27:56.226Z,45.44
2018-08-18T09:33:03.412Z,45.50
2018-08-18T09:38:08.163Z,45.84
2018-08-18T09:43:17.141Z,46.63
